Time;durP1;ratioP1;P1;durP2;ratioP2;P2;SDS_P1;SDS_P2;PMS_P1;PMS_P2;Temp;Humidity;BMP_temperature;BMP_pressure;BME280_temperature;BME280_humidity;BME280_pressure;Samples;Min_cycle;Max_cycle;Signal;HPM_P1;HPM_P2
2023/02/14 00:01:46;;;;;;;28.17;20.92;;;;;;;2.84;100.00;103471.16;5114103;27;20092;-38
2023/02/14 00:04:12;;;;;;;25.30;19.92;;;;;;;2.83;100.00;103473.94;5114706;28;20084;-38
2023/02/14 00:06:38;;;;;;;25.10;18.20;;;;;;;2.77;100.00;103469.91;5114307;28;20027;-38
2023/02/14 00:09:06;;;;;;;25.42;19.35;;;;;;;2.73;100.00;103480.94;5114345;28;20129;-38
2023/02/14 00:11:31;;;;;;;23.55;18.90;;;;;;;2.70;100.00;103475.84;5114522;28;20084;-38
2023/02/14 00:16:42;;;;;;;24.60;19.05;;;;;;;2.58;100.00;103470.41;5113999;28;20058;-39
2023/02/14 00:19:10;;;;;;;22.70;18.05;;;;;;;2.48;100.00;103466.72;5114158;28;20040;-38
2023/02/14 00:21:37;;;;;;;25.75;18.80;;;;;;;2.43;100.00;103468.91;5114156;28;20486;-38
2023/02/14 00:24:06;;;;;;;22.77;18.08;;;;;;;2.31;100.00;103465.31;5114133;28;20034;-38
2023/02/14 00:26:32;;;;;;;23.63;19.13;;;;;;;2.35;100.00;103463.28;5114139;28;20458;-37
2023/02/14 00:28:57;;;;;;;25.13;18.20;;;;;;;2.25;100.00;103447.09;5113769;28;20139;-37
2023/02/14 00:31:22;;;;;;;25.47;17.83;;;;;;;2.38;100.00;103459.53;5114422;28;20098;-37
2023/02/14 00:33:48;;;;;;;23.80;18.83;;;;;;;2.31;100.00;103454.63;5114502;28;20036;-37
2023/02/14 00:36:13;;;;;;;24.47;18.80;;;;;;;2.29;100.00;103461.94;5114565;28;20378;-37
2023/02/14 00:38:38;;;;;;;23.17;17.17;;;;;;;2.29;100.00;103455.69;5114075;28;20043;-37
2023/02/14 00:41:04;;;;;;;21.40;17.20;;;;;;;2.29;100.00;103453.03;5114561;28;20024;-37
2023/02/14 00:43:30;;;;;;;23.07;18.63;;;;;;;2.27;100.00;103446.97;5113682;28;20031;-37
2023/02/14 00:45:55;;;;;;;24.50;19.38;;;;;;;2.33;100.00;103458.03;5114741;28;20027;-37
2023/02/14 00:48:20;;;;;;;23.23;17.25;;;;;;;2.31;100.00;103453.78;5113887;28;20049;-37
2023/02/14 00:50:46;;;;;;;27.97;19.03;;;;;;;2.29;100.00;103453.91;5113872;28;20028;-37
2023/02/14 00:53:12;;;;;;;23.52;18.73;;;;;;;2.25;100.00;103451.59;5114253;28;20069;-37
2023/02/14 00:55:37;;;;;;;22.60;17.08;;;;;;;2.19;100.00;103438.66;5114703;28;20026;-37
2023/02/14 00:58:03;;;;;;;23.67;17.33;;;;;;;2.22;100.00;103441.13;5113806;28;20042;-37
2023/02/14 01:00:28;;;;;;;23.87;17.27;;;;;;;2.23;100.00;103450.81;5114082;28;20249;-37
2023/02/14 01:02:54;;;;;;;21.45;17.42;;;;;;;2.23;100.00;103445.47;5114531;28;20023;-38
2023/02/14 01:05:19;;;;;;;26.50;17.70;;;;;;;2.24;100.00;103447.19;5114013;28;20042;-38
2023/02/14 01:07:45;;;;;;;23.63;17.73;;;;;;;2.18;100.00;103450.31;5113650;28;20115;-38
2023/02/14 01:10:10;;;;;;;25.67;16.53;;;;;;;2.18;100.00;103450.31;5114017;28;20099;-38
2023/02/14 01:12:35;;;;;;;23.33;17.70;;;;;;;2.13;100.00;103447.97;5113625;28;20482;-37
2023/02/14 01:15:01;;;;;;;23.43;17.07;;;;;;;2.10;100.00;103448.22;5114137;28;20285;-37
2023/02/14 01:17:26;;;;;;;20.47;16.83;;;;;;;2.13;100.00;103447.97;5113378;28;20023;-38
2023/02/14 01:19:52;;;;;;;24.30;16.50;;;;;;;2.17;100.00;103448.63;5114045;28;20051;-38
2023/02/14 01:22:17;;;;;;;21.05;15.98;;;;;;;2.14;100.00;103449.66;5113855;28;20501;-38
2023/02/14 01:24:43;;;;;;;17.43;14.53;;;;;;;2.18;100.00;103455.66;5114417;28;20063;-38
2023/02/14 01:27:08;;;;;;;17.60;13.77;;;;;;;2.17;100.00;103462.81;5114351;28;20072;-38
2023/02/14 01:29:34;;;;;;;21.63;16.35;;;;;;;2.17;100.00;103456.63;5117165;28;20073;-38
2023/02/14 01:31:59;;;;;;;26.00;16.57;;;;;;;2.21;100.00;103453.63;5117952;28;20450;-37
2023/02/14 01:34:24;;;;;;;18.67;15.60;;;;;;;2.22;100.00;103457.97;5117583;28;20031;-37
2023/02/14 01:36:50;;;;;;;19.63;14.93;;;;;;;2.20;100.00;103454.59;5117756;28;20028;-37
2023/02/14 01:39:17;;;;;;;21.53;15.13;;;;;;;2.09;100.00;103450.97;5117225;28;20030;-37
2023/02/14 01:41:47;;;;;;;21.25;14.98;;;;;;;1.91;100.00;103447.84;5117052;28;20028;-37
2023/02/14 01:44:12;;;;;;;21.02;15.05;;;;;;;2.01;100.00;103460.41;5116704;28;20417;-38
2023/02/14 01:46:37;;;;;;;18.40;13.00;;;;;;;2.00;100.00;103456.03;5116767;28;20028;-37
2023/02/14 01:49:08;;;;;;;18.70;13.57;;;;;;;2.03;100.00;103458.47;5117433;27;20034;-38
2023/02/14 01:51:37;;;;;;;18.50;12.68;;;;;;;1.97;100.00;103452.72;5117220;28;20027;-38
2023/02/14 01:54:06;;;;;;;18.02;13.73;;;;;;;2.02;100.00;103458.59;5117700;28;20039;-37
2023/02/14 01:56:39;;;;;;;17.73;13.20;;;;;;;1.96;100.00;103454.56;5116819;28;20035;-37
2023/02/14 01:59:09;;;;;;;17.42;13.40;;;;;;;1.98;100.00;103457.94;5116747;27;20485;-38
2023/02/14 02:01:35;;;;;;;19.00;14.27;;;;;;;1.94;100.00;103455.59;5116423;28;20479;-38
2023/02/14 02:04:18;;;;;;;15.80;12.23;;;;;;;1.96;100.00;103456.38;5116339;28;20032;-37
2023/02/14 02:06:51;;;;;;;16.42;13.25;;;;;;;1.87;100.00;103441.00;5116761;27;20028;-38
2023/02/14 02:09:27;;;;;;;17.95;13.18;;;;;;;1.92;100.00;103452.22;5116603;28;20027;-37
2023/02/14 02:11:53;;;;;;;18.50;13.60;;;;;;;1.97;100.00;103447.41;5116303;27;20059;-37
2023/02/14 02:14:20;;;;;;;17.80;13.82;;;;;;;1.88;100.00;103430.22;5116179;28;20106;-37
2023/02/14 02:16:55;;;;;;;17.15;13.35;;;;;;;1.92;100.00;103439.72;5116408;28;20027;-37
2023/02/14 02:19:43;;;;;;;16.10;11.65;;;;;;;1.92;100.00;103433.53;5116627;28;20044;-37
2023/02/14 02:22:52;;;;;;;16.77;12.60;;;;;;;1.91;100.00;103429.16;5116460;28;20031;-37
2023/02/14 02:25:37;;;;;;;14.05;11.25;;;;;;;1.93;100.00;103424.56;5116864;28;20032;-37
2023/02/14 02:28:02;;;;;;;15.20;11.95;;;;;;;1.90;100.00;103420.28;5116847;28;20058;-37
2023/02/14 02:30:39;;;;;;;13.97;11.20;;;;;;;1.98;100.00;103425.06;5116243;28;20386;-37
2023/02/14 02:33:07;;;;;;;19.30;13.55;;;;;;;1.84;100.00;103415.38;5116001;28;20031;-37
2023/02/14 02:35:50;;;;;;;18.50;12.38;;;;;;;1.85;100.00;103416.25;5116466;28;20115;-37
2023/02/14 02:38:35;;;;;;;15.85;12.93;;;;;;;1.92;100.00;103425.53;5115991;28;20455;-37
2023/02/14 02:41:31;;;;;;;14.52;11.35;;;;;;;1.90;100.00;103432.78;5115982;28;20540;-38
2023/02/14 02:44:15;;;;;;;17.17;11.52;;;;;;;1.96;100.00;103413.66;5115709;28;20487;-38
2023/02/14 02:47:17;;;;;;;17.10;12.48;;;;;;;1.95;100.00;103428.84;5116124;28;20027;-38
2023/02/14 02:53:05;;;;;;;13.52;9.80;;;;;;;1.93;100.00;103413.88;5116100;28;20046;-38
2023/02/14 02:58:49;;;;;;;15.30;11.35;;;;;;;1.80;100.00;103409.41;5115669;28;20084;-38
2023/02/14 03:01:20;;;;;;;13.38;10.70;;;;;;;1.87;100.00;103431.19;5116192;28;20051;-38
2023/02/14 03:06:32;;;;;;;;;;;;;;;2.01;100.00;103435.53;5116583;28;20164;-37
2023/02/14 03:09:12;;;;;;;12.10;9.90;;;;;;;1.99;100.00;103438.28;5115460;28;20414;-37
2023/02/14 03:11:47;;;;;;;17.08;12.13;;;;;;;1.84;100.00;103430.56;5115125;28;20104;-37
2023/02/14 03:14:32;;;;;;;12.65;10.80;;;;;;;1.97;100.00;103431.38;5115829;28;20027;-37
2023/02/14 03:17:23;;;;;;;15.75;11.55;;;;;;;1.93;100.00;103429.91;5116180;28;20028;-37
2023/02/14 03:20:14;;;;;;;14.88;11.02;;;;;;;1.90;100.00;103432.78;5115684;28;20047;-37
2023/02/14 03:23:01;;;;;;;13.25;10.63;;;;;;;1.89;100.00;103431.06;5115164;28;20043;-37
2023/02/14 03:25:38;;;;;;;;;;;;;;;1.93;100.00;103440.56;5116110;28;20020;-37
2023/02/14 03:28:29;;;;;;;14.52;11.50;;;;;;;1.82;100.00;103430.69;5115641;28;19992;-37
2023/02/14 03:30:57;;;;;;;11.93;9.80;;;;;;;1.80;100.00;103437.91;5115040;28;20046;-38
2023/02/14 03:33:42;;;;;;;16.02;12.25;;;;;;;1.73;100.00;103440.19;5114804;28;20055;-37
2023/02/14 03:36:17;;;;;;;14.20;10.88;;;;;;;1.69;100.00;103425.34;5114964;28;20031;-38
2023/02/14 03:38:49;;;;;;;15.27;12.00;;;;;;;1.66;100.00;103438.06;5115159;28;20160;-37
2023/02/14 03:41:24;;;;;;;14.65;11.02;;;;;;;1.68;100.00;103434.31;5115112;28;20035;-37
2023/02/14 03:43:57;;;;;;;15.05;11.45;;;;;;;1.64;100.00;103442.66;5115120;28;20065;-37
2023/02/14 03:46:31;;;;;;;12.23;9.25;;;;;;;1.72;100.00;103435.81;5114720;28;20038;-37
2023/02/14 03:49:02;;;;;;;12.88;10.40;;;;;;;1.74;100.00;103433.88;5115539;28;20050;-37
2023/02/14 03:51:33;;;;;;;13.18;10.60;;;;;;;1.71;100.00;103423.44;5114101;28;20066;-37
2023/02/14 03:54:00;;;;;;;14.80;11.60;;;;;;;1.65;100.00;103426.53;5114523;28;20039;-37
2023/02/14 03:56:36;;;;;;;14.88;12.38;;;;;;;1.63;100.00;103425.78;5114569;28;20502;-37
2023/02/14 03:59:15;;;;;;;14.63;11.45;;;;;;;1.66;100.00;103422.03;5115641;28;20023;-41
2023/02/14 04:02:00;;;;;;;16.23;12.48;;;;;;;1.55;100.00;103418.31;5115009;28;20024;-37
2023/02/14 04:04:30;;;;;;;14.18;11.50;;;;;;;1.58;100.00;103421.75;5113753;28;20463;-37
2023/02/14 04:06:56;;;;;;;16.10;12.18;;;;;;;1.62;100.00;103437.44;5114467;28;20110;-37
2023/02/14 04:09:21;;;;;;;12.97;10.73;;;;;;;1.61;100.00;103434.84;5114467;28;20028;-37
2023/02/14 04:11:49;;;;;;;15.33;11.30;;;;;;;1.50;100.00;103417.81;5114941;28;20028;-37
2023/02/14 04:14:15;;;;;;;14.57;11.18;;;;;;;1.58;100.00;103430.59;5115036;28;20031;-37
2023/02/14 04:19:24;;;;;;;13.00;10.98;;;;;;;1.47;100.00;103428.72;5114493;28;20494;-37
2023/02/14 04:21:51;;;;;;;13.15;11.40;;;;;;;1.53;100.00;103425.59;5114254;28;20023;-38
2023/02/14 04:24:16;;;;;;;16.30;12.77;;;;;;;1.42;100.00;103414.00;5114434;28;20032;-37
2023/02/14 04:26:53;;;;;;;12.53;10.63;;;;;;;1.61;100.00;103443.75;5113907;28;20041;-37
2023/02/14 04:29:21;;;;;;;15.60;11.40;;;;;;;1.59;100.00;103426.13;5113843;28;20055;-37
2023/02/14 04:31:46;;;;;;;14.68;11.82;;;;;;;1.44;100.00;103422.72;5114332;28;20405;-37
2023/02/14 04:34:12;;;;;;;14.43;11.17;;;;;;;1.59;100.00;103426.13;5114106;28;20031;-37
2023/02/14 04:36:38;;;;;;;13.77;10.90;;;;;;;1.55;100.00;103417.47;5113994;28;20032;-37
2023/02/14 04:39:03;;;;;;;12.63;10.20;;;;;;;1.63;100.00;103433.81;5114115;28;20042;-37
2023/02/14 04:41:29;;;;;;;15.68;11.63;;;;;;;1.50;100.00;103415.13;5113936;28;20027;-37
2023/02/14 04:43:54;;;;;;;16.85;12.75;;;;;;;1.56;100.00;103427.19;5114742;28;20027;-38
2023/02/14 04:46:20;;;;;;;16.23;12.60;;;;;;;1.53;100.00;103422.09;5113883;28;20028;-37
2023/02/14 04:48:45;;;;;;;15.97;11.87;;;;;;;1.54;100.00;103429.13;5113845;28;20057;-37
2023/02/14 04:51:10;;;;;;;17.00;11.73;;;;;;;1.55;100.00;103425.47;5114465;28;20447;-37
2023/02/14 04:53:39;;;;;;;14.13;10.53;;;;;;;1.61;100.00;103433.06;5113780;28;20031;-37
2023/02/14 04:56:05;;;;;;;16.63;13.05;;;;;;;1.52;100.00;103413.22;5114085;28;20024;-37
2023/02/14 04:58:30;;;;;;;14.45;11.90;;;;;;;1.58;100.00;103419.09;5113808;28;20032;-37
2023/02/14 05:00:56;;;;;;;15.13;11.83;;;;;;;1.58;100.00;103419.09;5113802;28;20435;-38
2023/02/14 05:03:21;;;;;;;17.90;12.37;;;;;;;1.43;100.00;103413.88;5117526;28;20039;-38
2023/02/14 05:05:46;;;;;;;14.20;11.70;;;;;;;1.55;100.00;103421.00;5118215;28;20079;-38
2023/02/14 05:08:13;;;;;;;16.00;13.23;;;;;;;1.44;100.00;103396.91;5118413;28;20024;-38
2023/02/14 05:10:38;;;;;;;;;;;;;;;1.59;100.00;103412.78;5118259;28;20034;-38
2023/02/14 05:13:03;;;;;;;14.47;11.93;;;;;;;1.50;100.00;103417.81;5117893;28;19908;-38
2023/02/14 05:15:29;;;;;;;16.40;13.20;;;;;;;1.39;100.00;103414.19;5117724;28;20264;-38
2023/02/14 05:17:54;;;;;;;16.20;12.93;;;;;;;1.43;100.00;103410.38;5117713;28;20459;-37
2023/02/14 05:20:20;;;;;;;16.73;12.33;;;;;;;1.36;100.00;103407.25;5117359;28;20504;-37
2023/02/14 05:22:45;;;;;;;17.50;12.10;;;;;;;1.38;100.00;103402.69;5117196;28;20368;-37
2023/02/14 05:25:10;;;;;;;12.20;10.33;;;;;;;1.38;100.00;103409.84;5118115;28;20115;-37
2023/02/14 05:27:36;;;;;;;17.13;12.33;;;;;;;1.38;100.00;103405.34;5117597;28;20080;-37
2023/02/14 05:30:01;;;;;;;12.97;11.00;;;;;;;1.43;100.00;103397.03;5117489;28;20028;-38
2023/02/14 05:32:26;;;;;;;12.40;10.53;;;;;;;1.43;100.00;103395.22;5117432;28;20386;-37
2023/02/14 05:34:52;;;;;;;14.27;11.40;;;;;;;1.39;100.00;103399.06;5117335;28;20460;-37
2023/02/14 05:37:17;;;;;;;14.20;11.03;;;;;;;1.39;100.00;103408.88;5117603;28;20027;-37
2023/02/14 05:39:42;;;;;;;13.37;11.20;;;;;;;1.32;100.00;103407.56;5117630;28;20122;-37
2023/02/14 05:42:08;;;;;;;15.00;10.77;;;;;;;1.36;100.00;103404.59;5117142;28;20019;-37
2023/02/14 05:44:33;;;;;;;15.37;11.03;;;;;;;1.38;100.00;103407.16;5117759;27;20027;-37
2023/02/14 05:46:58;;;;;;;15.13;12.67;;;;;;;1.29;100.00;103396.19;5117141;28;20054;-37
2023/02/14 05:49:24;;;;;;;14.20;11.40;;;;;;;1.30;100.00;103407.69;5117892;28;20016;-37
2023/02/14 05:51:49;;;;;;;14.13;11.80;;;;;;;1.21;100.00;103395.00;5117077;28;20023;-37
2023/02/14 05:54:14;;;;;;;14.47;10.90;;;;;;;1.22;100.00;103402.91;5117011;28;20138;-37
2023/02/14 05:56:40;;;;;;;14.73;11.63;;;;;;;1.16;100.00;103391.81;5116923;28;20107;-37
2023/02/14 05:59:05;;;;;;;13.67;11.30;;;;;;;1.22;100.00;103400.25;5117454;28;20024;-37
2023/02/14 06:01:30;;;;;;;12.93;10.87;;;;;;;1.23;100.00;103406.44;5116800;28;20028;-38
2023/02/14 06:03:56;;;;;;;14.90;10.70;;;;;;;1.25;100.00;103404.50;5117308;28;20031;-37
2023/02/14 06:06:21;;;;;;;15.00;11.03;;;;;;;1.21;100.00;103400.34;5116595;28;20028;-37
2023/02/14 06:08:46;;;;;;;13.57;11.27;;;;;;;1.21;100.00;103408.34;5116704;28;20024;-37
2023/02/14 06:11:12;;;;;;;14.57;11.77;;;;;;;1.20;100.00;103403.97;5116633;28;20024;-38
2023/02/14 06:13:39;;;;;;;14.27;11.20;;;;;;;1.17;100.00;103412.16;5115519;28;20024;-37
2023/02/14 06:16:04;;;;;;;14.60;11.82;;;;;;;1.15;100.00;103406.94;5117019;27;20102;-37
2023/02/14 06:18:30;;;;;;;12.30;10.50;;;;;;;1.14;100.00;103412.41;5116467;28;20126;-37
2023/02/14 06:20:56;;;;;;;13.43;10.57;;;;;;;1.13;100.00;103414.22;5117117;28;20058;-37
2023/02/14 06:23:21;;;;;;;13.25;10.75;;;;;;;1.10;100.00;103413.56;5116395;28;20530;-37
2023/02/14 06:25:46;;;;;;;17.10;13.60;;;;;;;1.03;100.00;103418.47;5116070;28;20445;-37
2023/02/14 06:28:12;;;;;;;17.87;13.30;;;;;;;0.98;100.00;103421.47;5116001;28;20059;-36
2023/02/14 06:30:37;;;;;;;16.13;12.90;;;;;;;0.77;100.00;103394.44;5116344;28;20024;-36
2023/02/14 06:33:02;;;;;;;14.87;12.50;;;;;;;0.95;100.00;103423.47;5116079;28;20050;-37
2023/02/14 06:35:28;;;;;;;15.03;12.53;;;;;;;0.95;100.00;103418.13;5116471;28;20042;-37
2023/02/14 06:37:53;;;;;;;15.33;12.23;;;;;;;0.94;100.00;103416.44;5116451;27;20032;-37
2023/02/14 06:40:19;;;;;;;14.30;12.10;;;;;;;0.92;100.00;103421.00;5116721;28;20024;-37
2023/02/14 06:42:44;;;;;;;12.75;10.75;;;;;;;0.93;100.00;103420.91;5115960;28;20019;-37
2023/02/14 06:45:10;;;;;;;15.03;12.13;;;;;;;0.93;100.00;103423.59;5116275;28;20038;-37
2023/02/14 06:47:36;;;;;;;14.48;11.40;;;;;;;1.00;100.00;103435.50;5115898;28;20031;-38
2023/02/14 06:50:03;;;;;;;15.50;12.20;;;;;;;0.96;100.00;103425.16;5115632;28;20027;-38
2023/02/14 06:52:29;;;;;;;15.77;11.57;;;;;;;1.02;100.00;103427.41;5115811;28;20103;-37
2023/02/14 06:54:55;;;;;;;16.40;12.13;;;;;;;0.92;100.00;103427.19;5115750;28;20375;-41
2023/02/14 06:57:20;;;;;;;16.80;12.30;;;;;;;0.96;100.00;103431.34;5115747;27;20024;-37
2023/02/14 06:59:45;;;;;;;14.80;12.03;;;;;;;1.05;100.00;103426.34;5115974;28;20375;-37
2023/02/14 07:02:11;;;;;;;13.80;10.33;;;;;;;1.10;100.00;103441.06;5115654;28;20024;-37
2023/02/14 07:04:36;;;;;;;17.00;12.73;;;;;;;1.08;100.00;103432.34;5115953;28;20038;-38
2023/02/14 07:07:02;;;;;;;13.40;11.20;;;;;;;1.14;100.00;103434.56;5115483;28;20118;-37
2023/02/14 07:09:27;;;;;;;16.95;11.43;;;;;;;1.02;100.00;103411.41;5115841;28;20038;-37
2023/02/14 07:11:52;;;;;;;13.50;11.53;;;;;;;1.16;100.00;103435.31;5115138;28;20028;-37
2023/02/14 07:14:18;;;;;;;17.73;11.93;;;;;;;1.18;100.00;103425.41;5116096;28;20024;-37
2023/02/14 07:16:43;;;;;;;14.60;10.53;;;;;;;1.23;100.00;103436.59;5115318;28;20036;-37
2023/02/14 07:19:08;;;;;;;15.37;11.37;;;;;;;1.17;100.00;103421.03;5115406;28;20046;-38
2023/02/14 07:21:34;;;;;;;17.63;12.43;;;;;;;1.31;100.00;103441.38;5115220;28;20027;-38
2023/02/14 07:23:59;;;;;;;14.93;11.20;;;;;;;1.33;100.00;103430.63;5115303;28;20034;-38
2023/02/14 07:26:25;;;;;;;12.57;10.07;;;;;;;1.42;100.00;103430.84;5114981;28;20035;-39
2023/02/14 07:28:50;;;;;;;15.13;11.53;;;;;;;1.43;100.00;103434.38;5115353;28;20035;-38
2023/02/14 07:31:18;;;;;;;15.73;11.10;;;;;;;1.49;100.00;103429.44;5115049;28;20406;-38
2023/02/14 07:33:44;;;;;;;12.10;10.38;;;;;;;1.59;100.00;103442.97;5114633;28;20032;-39
2023/02/14 07:36:09;;;;;;;16.48;11.55;;;;;;;1.55;100.00;103433.47;5114654;27;20031;-38
2023/02/14 07:38:35;;;;;;;17.73;13.80;;;;;;;1.54;100.00;103445.97;5113961;28;20027;-38
2023/02/14 07:41:01;;;;;;;16.02;12.32;;;;;;;1.66;100.00;103436.25;5114917;28;20031;-35
2023/02/14 07:43:26;;;;;;;14.10;11.90;;;;;;;1.68;100.00;103430.81;5115422;28;20344;-37
2023/02/14 07:45:52;;;;;;;15.50;12.05;;;;;;;1.73;100.00;103424.19;5114753;28;20036;-37
2023/02/14 07:48:17;;;;;;;17.88;13.80;;;;;;;1.80;100.00;103436.09;5114648;28;20023;-37
2023/02/14 07:50:43;;;;;;;15.87;12.80;;;;;;;1.82;100.00;103428.00;5115224;28;20039;-37
2023/02/14 07:53:08;;;;;;;16.03;13.30;;;;;;;1.76;100.00;103413.28;5114264;28;20077;-37
2023/02/14 07:55:34;;;;;;;19.10;13.97;;;;;;;1.85;100.00;103426.91;5115217;28;20019;-37
2023/02/14 07:58:00;;;;;;;17.35;13.88;;;;;;;1.98;100.00;103433.06;5114374;28;20550;-38
2023/02/14 08:00:26;;;;;;;17.20;13.45;;;;;;;1.88;100.00;103413.38;5115422;28;20100;-38
2023/02/14 08:02:51;;;;;;;15.95;12.75;;;;;;;2.06;100.00;103426.22;5114270;28;20471;-38
2023/02/14 08:05:17;;;;;;;15.30;13.00;;;;;;;2.10;100.00;103420.63;5114846;28;20027;-38
2023/02/14 08:07:43;;;;;;;15.73;13.10;;;;;;;2.14;100.00;103420.31;5114708;28;20463;-38
2023/02/14 08:10:09;;;;;;;17.15;13.93;;;;;;;2.22;100.00;103417.94;5115379;28;20047;-37
2023/02/14 08:18:02;;;;;;;15.32;13.05;;;;;;;2.56;100.00;103410.94;5114313;28;20576;-38
2023/02/14 08:20:28;;;;;;;14.95;13.00;;;;;;;2.59;100.00;103417.88;5114094;28;20067;-38
2023/02/14 08:22:53;;;;;;;18.30;15.38;;;;;;;2.64;100.00;103415.72;5114222;28;20034;-38
2023/02/14 08:25:19;;;;;;;17.10;14.63;;;;;;;2.72;100.00;103421.28;5113959;28;20031;-37
2023/02/14 08:27:44;;;;;;;17.20;14.00;;;;;;;2.75;100.00;103415.72;5114179;28;20031;-38
2023/02/14 08:30:10;;;;;;;18.70;15.33;;;;;;;2.83;100.00;103426.69;5114259;28;20070;-37
2023/02/14 08:32:35;;;;;;;17.58;15.25;;;;;;;2.87;100.00;103410.41;5114410;28;20432;-39
2023/02/14 08:35:01;;;;;;;20.02;15.50;;;;;;;2.99;100.00;103417.50;5113833;28;20028;-37
2023/02/14 08:37:26;;;;;;;19.13;15.50;;;;;;;3.06;100.00;103427.59;5113510;28;20027;-37
2023/02/14 08:39:51;;;;;;;17.10;13.63;;;;;;;3.10;100.00;103433.56;5114367;28;20426;-38
2023/02/14 08:42:17;;;;;;;16.07;13.50;;;;;;;3.18;100.00;103420.47;5114354;28;20031;-38
2023/02/14 08:44:42;;;;;;;15.50;13.90;;;;;;;3.26;100.00;103428.72;5114051;28;20167;-38
2023/02/14 08:47:07;;;;;;;15.97;13.93;;;;;;;3.30;100.00;103414.13;5113597;28;20028;-37
2023/02/14 08:49:33;;;;;;;15.67;13.10;;;;;;;3.20;100.00;103396.25;5114340;28;20064;-37
2023/02/14 08:51:58;;;;;;;14.73;13.23;;;;;;;3.39;100.00;103419.75;5113699;28;20031;-38
2023/02/14 08:54:23;;;;;;;14.87;13.10;;;;;;;3.39;100.00;103420.59;5113867;28;20073;-37
2023/02/14 08:56:49;;;;;;;16.57;13.80;;;;;;;3.48;100.00;103419.88;5113495;28;20272;-38
2023/02/14 08:59:14;;;;;;;17.67;13.70;;;;;;;3.59;100.00;103416.31;5114203;28;20031;-38
2023/02/14 09:01:39;;;;;;;18.20;14.43;;;;;;;3.65;100.00;103414.97;5113543;28;20024;-38
2023/02/14 09:04:05;;;;;;;16.57;13.60;;;;;;;3.74;100.00;103423.13;5114098;28;20031;-38
2023/02/14 09:06:30;;;;;;;19.00;14.87;;;;;;;3.74;100.00;103407.06;5113762;28;20024;-38
2023/02/14 09:08:56;;;;;;;17.37;13.23;;;;;;;3.88;100.00;103417.50;5113381;28;20061;-38
2023/02/14 09:11:24;;;;;;;15.60;13.70;;;;;;;3.95;100.00;103408.97;5114361;28;20024;-40
2023/02/14 09:13:54;;;;;;;16.15;14.23;;;;;;;3.98;100.00;103406.91;5113709;28;20028;-37
2023/02/14 09:16:21;;;;;;;17.98;15.55;;;;;;;4.09;100.00;103425.63;5113387;28;20039;-37
2023/02/14 09:18:47;;;;;;;18.15;15.40;;;;;;;4.22;100.00;103420.13;5113945;28;20356;-38
2023/02/14 09:21:16;;;;;;;18.27;15.15;;;;;;;4.32;100.00;103413.03;5112439;28;20040;-38
2023/02/14 09:23:41;;;;;;;17.63;14.85;;;;;;;4.44;100.00;103407.63;5113647;28;20036;-38
2023/02/14 09:26:10;;;;;;;15.73;14.10;;;;;;;4.48;100.00;103390.31;5113983;28;20035;-38
2023/02/14 09:28:36;;;;;;;17.85;15.15;;;;;;;4.64;100.00;103413.03;5113302;28;20028;-38
2023/02/14 09:31:12;;;;;;;;;;;;;;;4.76;100.00;103408.44;5114074;28;20032;-38
2023/02/14 09:36:21;;;;;;;17.13;13.68;;;;;;;4.95;100.00;103404.19;5113564;28;20043;-38
2023/02/14 09:38:47;;;;;;;19.23;15.70;;;;;;;5.06;100.00;103407.66;5114041;28;20383;-37
2023/02/14 09:41:27;;;;;;;17.40;14.67;;;;;;;5.20;100.00;103405.63;5113772;28;20043;-38
2023/02/14 09:44:04;;;;;;;15.80;14.00;;;;;;;5.30;100.00;103401.16;5113331;28;20035;-37
2023/02/14 09:46:41;;;;;;;15.43;13.82;;;;;;;5.36;100.00;103401.44;5113257;28;20474;-37
2023/02/14 09:49:14;;;;;;;18.38;14.27;;;;;;;5.48;100.00;103398.69;5114999;28;20386;-38
2023/02/14 09:51:45;;;;;;;18.73;14.27;;;;;;;5.52;100.00;103390.25;5117372;28;20027;-37
2023/02/14 09:54:13;;;;;;;17.13;14.80;;;;;;;5.63;100.00;103390.13;5116647;28;20028;-37
2023/02/14 09:56:59;;;;;;;16.58;14.80;;;;;;;5.78;100.00;103395.97;5117016;28;20027;-37
2023/02/14 09:59:49;;;;;;;16.58;14.73;;;;;;;5.85;100.00;103389.03;5117446;28;20023;-37
2023/02/14 10:02:32;;;;;;;16.70;14.38;;;;;;;5.89;100.00;103370.81;5116913;28;20034;-37
2023/02/14 10:05:20;;;;;;;16.45;13.98;;;;;;;6.04;100.00;103372.16;5116499;28;20035;-37
2023/02/14 10:07:58;;;;;;;19.25;14.60;;;;;;;6.19;100.00;103381.50;5116686;28;20036;-37
2023/02/14 10:10:39;;;;;;;15.43;12.77;;;;;;;6.30;100.00;103380.53;5117478;28;20059;-38
2023/02/14 10:13:14;;;;;;;16.25;14.38;;;;;;;6.43;100.00;103383.78;5116924;28;20459;-36
2023/02/14 10:15:47;;;;;;;18.45;14.65;;;;;;;6.50;100.00;103383.22;5116661;27;20039;-36
2023/02/14 10:18:20;;;;;;;16.00;13.98;;;;;;;6.62;100.00;103376.69;5116782;27;20030;-37
2023/02/14 10:20:50;;;;;;;18.88;14.82;;;;;;;6.73;100.00;103379.22;5117569;28;20047;-37
2023/02/14 10:23:21;;;;;;;16.30;14.23;;;;;;;6.83;100.00;103376.50;5116383;28;20029;-39
2023/02/14 10:25:57;;;;;;;17.75;15.00;;;;;;;6.95;100.00;103386.97;5116895;28;20034;-37
2023/02/14 10:28:38;;;;;;;15.43;13.77;;;;;;;7.00;100.00;103378.47;5116575;28;20038;-37
2023/02/14 10:31:30;;;;;;;17.83;12.82;;;;;;;7.13;100.00;103368.25;5115904;28;20356;-36
2023/02/14 10:34:09;;;;;;;18.50;14.45;;;;;;;7.25;100.00;103376.13;5116351;28;20526;-38
2023/02/14 10:36:40;;;;;;;15.23;13.63;;;;;;;7.37;100.00;103372.25;5116177;28;20035;-39
2023/02/14 10:39:27;;;;;;;16.73;14.75;;;;;;;7.47;100.00;103371.22;5116591;28;20088;-38
2023/02/14 10:42:22;;;;;;;18.38;14.48;;;;;;;7.56;100.00;103363.22;5116364;28;20019;-37
2023/02/14 10:44:56;;;;;;;15.50;13.45;;;;;;;7.69;100.00;103361.03;5116086;28;20059;-37
2023/02/14 10:47:45;;;;;;;15.43;13.50;;;;;;;7.72;100.00;103345.44;5116306;28;20070;-37
2023/02/14 10:50:26;;;;;;;15.93;13.70;;;;;;;7.86;100.00;103356.69;5116459;28;20085;-37
2023/02/14 10:53:19;;;;;;;17.73;14.32;;;;;;;7.93;100.00;103347.00;5115600;28;20027;-37
2023/02/14 10:56:12;;;;;;;16.48;14.00;;;;;;;8.06;100.00;103349.31;5115438;28;20034;-37
2023/02/14 10:58:40;;;;;;;15.88;13.13;;;;;;;8.19;100.00;103345.22;5115691;28;20019;-37
2023/02/14 11:01:13;;;;;;;17.35;13.05;;;;;;;8.25;100.00;103352.72;5115545;28;20027;-37
2023/02/14 11:03:51;;;;;;;16.98;14.02;;;;;;;8.34;100.00;103348.22;5115832;28;20034;-37
2023/02/14 11:06:16;;;;;;;15.95;14.25;;;;;;;8.49;100.00;103341.34;5115280;28;20033;-37
2023/02/14 11:08:41;;;;;;;15.60;13.70;;;;;;;8.54;100.00;103345.38;5115322;27;20118;-37
2023/02/14 11:11:14;;;;;;;16.33;13.52;;;;;;;8.60;100.00;103324.03;5115409;28;20023;-37
2023/02/14 11:13:40;;;;;;;15.77;12.30;;;;;;;8.72;100.00;103335.41;5115346;28;20483;-37
2023/02/14 11:16:08;;;;;;;16.40;12.65;;;;;;;8.81;100.00;103326.38;5115500;28;20031;-37
2023/02/14 11:18:38;;;;;;;15.65;12.93;;;;;;;8.90;100.00;103327.28;5115323;28;20045;-37
2023/02/14 11:21:16;;;;;;;15.30;12.68;;;;;;;9.00;99.95;103328.84;5116063;28;20051;-37
2023/02/14 11:23:49;;;;;;;16.33;12.32;;;;;;;9.05;98.35;103327.53;5115297;28;20051;-38
2023/02/14 11:26:25;;;;;;;13.95;12.52;;;;;;;9.07;97.01;103315.56;5115383;28;20446;-38
2023/02/14 11:29:01;;;;;;;14.65;12.25;;;;;;;9.16;97.59;103319.97;5114810;28;20027;-38
2023/02/14 11:31:34;;;;;;;14.70;12.17;;;;;;;9.27;97.61;103322.41;5115598;28;20016;-37
2023/02/14 11:34:01;;;;;;;17.75;13.05;;;;;;;9.34;96.93;103317.22;5114915;28;20050;-38
2023/02/14 11:36:29;;;;;;;15.43;13.20;;;;;;;9.41;98.29;103310.13;5115502;28;20471;-37
2023/02/14 11:39:15;;;;;;;17.27;13.30;;;;;;;9.52;98.26;103309.84;5114922;28;20144;-37
2023/02/14 11:41:47;;;;;;;16.98;12.48;;;;;;;9.60;97.48;103309.00;5114620;28;20144;-37
2023/02/14 11:44:21;;;;;;;16.02;13.35;;;;;;;9.64;96.77;103304.13;5114825;28;20043;-37
2023/02/14 11:46:47;;;;;;;15.13;12.82;;;;;;;9.68;96.24;103297.41;5115590;28;20024;-37